createdAt,value
2022-10-23T00:02:24.748Z,20.43
2022-10-23T00:05:30.585Z,22.63
2022-10-23T00:08:37.906Z,21.37
2022-10-23T00:11:45.376Z,20.80
2022-10-23T00:14:49.161Z,22.03
2022-10-23T00:18:00.922Z,21.70
2022-10-23T00:21:07.103Z,21.57
2022-10-23T00:24:11.095Z,20.90
2022-10-23T00:27:17.706Z,20.93
2022-10-23T00:30:21.567Z,21.70
2022-10-23T00:33:28.997Z,22.47
2022-10-23T00:36:32.815Z,22.27
2022-10-23T00:39:36.572Z,21.67
2022-10-23T00:42:41.588Z,22.10
2022-10-23T00:45:45.623Z,23.47
2022-10-23T00:49:00.951Z,22.03
2022-10-23T00:52:08.363Z,21.63
2022-10-23T00:55:16.113Z,21.87
2022-10-23T00:58:21.617Z,20.20
2022-10-23T01:01:31.634Z,20.07
2022-10-23T01:04:40.585Z,20.67
2022-10-23T01:07:51.795Z,19.90
2022-10-23T01:11:05.017Z,19.63
2022-10-23T01:14:21.841Z,18.10
2022-10-23T01:17:30.313Z,19.00
2022-10-23T01:20:43.873Z,19.17
2022-10-23T01:24:11.092Z,19.10
2022-10-23T01:27:28.651Z,18.73
2022-10-23T01:30:34.081Z,17.37
2022-10-23T01:33:42.316Z,18.57
2022-10-23T01:36:52.222Z,18.07
2022-10-23T01:40:02.477Z,17.77
2022-10-23T01:43:14.541Z,17.47
2022-10-23T01:46:19.223Z,15.97
2022-10-23T01:49:25.473Z,19.10
2022-10-23T01:52:32.986Z,17.37
2022-10-23T01:58:59.421Z,19.10
2022-10-23T02:02:08.300Z,17.70
2022-10-23T02:05:16.325Z,18.23
2022-10-23T02:08:20.003Z,16.47
2022-10-23T02:11:23.989Z,16.17
2022-10-23T02:14:40.202Z,16.50
2022-10-23T02:17:51.149Z,15.83
2022-10-23T02:20:57.716Z,17.57
2022-10-23T02:24:06.883Z,15.83
2022-10-23T02:27:18.732Z,17.43
2022-10-23T02:30:31.437Z,15.90
2022-10-23T02:33:46.161Z,16.70
2022-10-23T02:36:50.635Z,17.30
2022-10-23T02:39:56.765Z,16.03
2022-10-23T02:43:03.690Z,15.83
2022-10-23T02:46:19.157Z,16.67
2022-10-23T02:49:30.795Z,15.90
2022-10-23T02:52:42.811Z,15.80
2022-10-23T02:56:01.344Z,15.40
2022-10-23T02:59:12.373Z,16.87
2022-10-23T03:02:25.547Z,17.47
2022-10-23T03:05:33.910Z,17.57
2022-10-23T03:08:45.652Z,17.53
2022-10-23T03:11:49.257Z,18.73
2022-10-23T03:14:52.997Z,18.13
2022-10-23T03:18:00.386Z,16.77
2022-10-23T03:21:03.970Z,17.80
2022-10-23T03:24:10.706Z,16.53
2022-10-23T03:27:19.035Z,16.10
2022-10-23T03:30:22.645Z,17.07
2022-10-23T03:33:35.946Z,16.73
2022-10-23T03:36:48.291Z,15.63
2022-10-23T03:39:52.342Z,15.07
2022-10-23T03:42:55.981Z,13.93
2022-10-23T03:46:01.034Z,13.40
2022-10-23T03:49:06.384Z,12.40
2022-10-23T03:52:10.227Z,13.43
2022-10-23T03:55:14.304Z,11.37
2022-10-23T03:58:17.952Z,11.37
2022-10-23T04:01:22.419Z,12.63
2022-10-23T04:04:27.936Z,12.43
2022-10-23T04:07:31.519Z,12.47
2022-10-23T04:10:38.680Z,12.03
2022-10-23T04:13:42.117Z,12.80
2022-10-23T04:16:45.812Z,13.63
2022-10-23T04:19:50.952Z,12.93
2022-10-23T04:22:54.513Z,12.80
2022-10-23T04:25:58.883Z,15.33
2022-10-23T04:29:03.343Z,12.90
2022-10-23T04:32:08.716Z,12.07
2022-10-23T04:35:13.994Z,11.70
2022-10-23T04:38:17.805Z,11.60
2022-10-23T04:41:21.585Z,10.93
2022-10-23T04:44:25.297Z,9.90
2022-10-23T04:47:29.092Z,9.40
2022-10-23T04:50:36.685Z,8.40
2022-10-23T04:54:03.186Z,8.73
2022-10-23T04:57:33.213Z,8.97
2022-10-23T05:00:40.231Z,7.97
2022-10-23T05:03:45.502Z,7.87
2022-10-23T05:06:51.666Z,8.03
2022-10-23T05:10:09.099Z,7.13
2022-10-23T05:13:31.676Z,7.53
2022-10-23T05:16:39.385Z,7.43
2022-10-23T05:19:45.873Z,8.10
2022-10-23T05:22:53.362Z,6.80
2022-10-23T05:26:03.451Z,7.03
2022-10-23T05:29:08.741Z,6.67
2022-10-23T05:32:15.975Z,6.60
2022-10-23T05:35:23.882Z,6.50
2022-10-23T05:38:34.256Z,5.97
2022-10-23T05:41:42.566Z,5.57
2022-10-23T05:44:46.242Z,6.10
2022-10-23T05:48:29.972Z,5.70
2022-10-23T05:51:49.824Z,6.53
2022-10-23T05:54:57.676Z,5.87
2022-10-23T05:58:40.346Z,5.80
2022-10-23T06:01:54.319Z,5.23
2022-10-23T06:05:18.566Z,5.23
2022-10-23T06:08:48.512Z,4.83
2022-10-23T06:11:54.584Z,5.70
2022-10-23T06:14:59.582Z,5.43
2022-10-23T06:18:23.465Z,5.10
2022-10-23T06:21:39.515Z,5.63
2022-10-23T06:24:43.894Z,5.53
2022-10-23T06:27:52.925Z,6.13
2022-10-23T06:30:56.783Z,5.37
2022-10-23T06:34:01.535Z,5.40
2022-10-23T06:37:07.716Z,5.33
2022-10-23T06:40:31.757Z,6.20
2022-10-23T06:43:40.286Z,5.90
2022-10-23T06:47:02.135Z,6.50
2022-10-23T06:50:25.372Z,6.10
2022-10-23T06:53:29.836Z,6.40
2022-10-23T06:56:42.637Z,5.77
2022-10-23T06:59:48.902Z,7.73
2022-10-23T07:02:54.336Z,12.50
2022-10-23T07:06:02.383Z,28.93
2022-10-23T07:09:06.536Z,19.48
2022-10-23T07:12:29.906Z,11.40
2022-10-23T07:15:53.725Z,21.77
2022-10-23T07:19:02.133Z,14.57
2022-10-23T07:22:05.906Z,19.52
2022-10-23T07:25:27.703Z,19.27
2022-10-23T07:28:31.567Z,15.55
2022-10-23T07:31:36.794Z,11.25
2022-10-23T07:38:33.794Z,5.93
2022-10-23T07:41:38.823Z,6.40
2022-10-23T07:44:42.546Z,6.68
2022-10-23T07:47:52.197Z,5.85
2022-10-23T07:51:01.078Z,6.07
2022-10-23T07:54:05.230Z,6.03
2022-10-23T07:57:28.863Z,6.28
2022-10-23T08:00:43.324Z,5.70
2022-10-23T08:04:03.182Z,5.85
2022-10-23T08:07:07.718Z,5.50
2022-10-23T08:10:16.936Z,5.03
2022-10-23T08:13:22.533Z,4.55
2022-10-23T08:16:35.897Z,4.55
2022-10-23T08:19:41.167Z,5.03
2022-10-23T08:22:44.918Z,4.80
2022-10-23T08:25:58.790Z,4.00
2022-10-23T08:29:03.224Z,4.85
2022-10-23T08:32:07.454Z,4.72
2022-10-23T08:35:29.445Z,3.92
2022-10-23T08:38:35.836Z,4.38
2022-10-23T08:41:44.144Z,4.57
2022-10-23T08:45:00.525Z,4.40
2022-10-23T08:48:14.962Z,3.50
2022-10-23T08:51:44.026Z,4.65
2022-10-23T08:54:58.915Z,4.18
2022-10-23T08:58:06.916Z,3.60
2022-10-23T09:01:28.712Z,3.10
2022-10-23T09:04:33.385Z,3.63
2022-10-23T09:07:44.716Z,4.22
2022-10-23T09:11:02.751Z,4.40
2022-10-23T09:14:30.485Z,3.70
2022-10-23T09:17:38.158Z,2.67
2022-10-23T09:20:45.583Z,3.15
2022-10-23T09:23:50.676Z,4.63
2022-10-23T09:26:55.749Z,4.45
2022-10-23T09:29:59.582Z,3.05
2022-10-23T09:33:15.442Z,3.10
2022-10-23T09:36:23.732Z,3.28
2022-10-23T09:39:32.341Z,2.90
2022-10-23T09:42:36.068Z,2.65
2022-10-23T09:45:42.672Z,3.15
2022-10-23T09:49:00.943Z,2.42
2022-10-23T09:52:24.563Z,4.22
2022-10-23T09:55:30.687Z,4.72
2022-10-23T09:58:37.787Z,4.10
2022-10-23T10:01:49.194Z,4.47
2022-10-23T10:05:25.685Z,3.47
2022-10-23T10:08:41.235Z,4.70
2022-10-23T10:11:51.563Z,4.72
2022-10-23T10:15:09.804Z,5.03
2022-10-23T10:18:20.046Z,2.90
2022-10-23T10:21:29.695Z,3.15
2022-10-23T10:24:40.544Z,3.22
2022-10-23T10:27:58.518Z,3.17
2022-10-23T10:31:12.416Z,3.70
2022-10-23T10:34:22.652Z,3.50
2022-10-23T10:37:35.055Z,2.50
2022-10-23T10:40:44.666Z,3.05
2022-10-23T10:44:02.725Z,2.72
2022-10-23T10:47:18.609Z,3.13
2022-10-23T10:50:32.982Z,2.35
2022-10-23T10:54:17.562Z,2.80
2022-10-23T10:57:31.375Z,2.42
2022-10-23T11:00:36.865Z,2.50
2022-10-23T11:03:45.942Z,2.50
2022-10-23T11:06:54.105Z,1.85
2022-10-23T11:10:01.105Z,2.55
2022-10-23T11:13:05.935Z,2.40
2022-10-23T11:16:15.215Z,2.35
2022-10-23T11:19:24.196Z,2.33
2022-10-23T11:22:33.758Z,2.78
2022-10-23T11:26:03.382Z,2.95
2022-10-23T11:29:30.746Z,2.90
2022-10-23T11:32:51.922Z,2.05
2022-10-23T11:36:15.766Z,2.70
2022-10-23T11:39:23.285Z,2.83
2022-10-23T11:42:34.141Z,2.45
2022-10-23T11:45:39.694Z,3.00
2022-10-23T11:48:47.745Z,2.20
2022-10-23T11:52:02.276Z,2.45
2022-10-23T11:55:18.442Z,2.15
2022-10-23T11:58:32.361Z,2.38
2022-10-23T12:01:42.981Z,2.40
2022-10-23T12:04:52.258Z,2.40
2022-10-23T12:07:58.013Z,2.90
2022-10-23T12:11:02.226Z,2.83
2022-10-23T12:14:06.000Z,3.08
2022-10-23T12:17:31.681Z,2.15
2022-10-23T12:20:46.778Z,2.30
2022-10-23T12:24:24.045Z,2.00
2022-10-23T12:27:35.636Z,2.58
2022-10-23T12:30:47.355Z,2.78
2022-10-23T12:34:01.856Z,2.30
2022-10-23T12:37:28.376Z,2.33
2022-10-23T12:40:32.346Z,2.38
2022-10-23T12:43:39.227Z,2.33
2022-10-23T12:46:47.765Z,2.60
2022-10-23T12:49:52.664Z,2.50
2022-10-23T12:52:59.402Z,2.42
2022-10-23T12:56:06.392Z,1.75
2022-10-23T12:59:17.403Z,2.00
2022-10-23T13:02:26.755Z,2.10
2022-10-23T13:05:31.815Z,2.10
2022-10-23T13:08:43.202Z,2.67
2022-10-23T13:12:09.535Z,2.60
2022-10-23T13:15:18.562Z,2.20
2022-10-23T13:18:22.247Z,2.42
2022-10-23T13:21:28.777Z,2.33
2022-10-23T13:24:34.082Z,2.30
2022-10-23T13:27:39.373Z,2.08
2022-10-23T13:30:46.418Z,2.03
2022-10-23T13:33:52.846Z,2.40
2022-10-23T13:37:05.695Z,3.00
2022-10-23T13:40:25.083Z,2.42
2022-10-23T13:43:30.977Z,2.58
2022-10-23T13:46:34.797Z,2.28
2022-10-23T13:49:41.206Z,2.45
2022-10-23T13:52:45.195Z,2.00
2022-10-23T13:55:56.370Z,2.40
2022-10-23T13:59:02.475Z,1.63
2022-10-23T14:02:19.642Z,2.00
2022-10-23T14:05:23.472Z,2.10
2022-10-23T14:08:27.246Z,1.95
2022-10-23T14:11:32.772Z,3.17
2022-10-23T14:14:36.566Z,2.20
2022-10-23T14:17:40.446Z,2.20
2022-10-23T14:20:44.142Z,2.20
2022-10-23T14:23:48.436Z,2.28
2022-10-23T14:26:53.675Z,2.60
2022-10-23T14:29:57.503Z,2.47
2022-10-23T14:33:01.215Z,2.40
2022-10-23T14:36:06.138Z,2.35
2022-10-23T14:39:09.896Z,2.30
2022-10-23T14:42:15.616Z,2.17
2022-10-23T14:45:19.352Z,2.10
2022-10-23T14:48:23.168Z,2.40
2022-10-23T14:51:28.923Z,2.80
2022-10-23T14:54:34.669Z,3.22
2022-10-23T14:57:39.897Z,3.00
2022-10-23T15:00:43.615Z,3.00
2022-10-23T15:03:47.422Z,3.00
2022-10-23T15:06:51.166Z,2.65
2022-10-23T15:09:55.722Z,3.38
2022-10-23T15:13:00.786Z,2.72
2022-10-23T15:16:06.385Z,2.83
2022-10-23T15:19:13.684Z,3.40
2022-10-23T15:22:21.169Z,3.28
2022-10-23T15:25:24.987Z,3.53
2022-10-23T15:28:31.172Z,2.78
2022-10-23T15:31:54.913Z,2.45
2022-10-23T15:35:00.320Z,3.15
2022-10-23T15:38:04.034Z,2.90
2022-10-23T15:41:16.755Z,3.10
2022-10-23T15:44:24.413Z,3.42
2022-10-23T15:47:28.063Z,3.50
2022-10-23T15:50:31.784Z,3.67
2022-10-23T15:53:35.467Z,3.60
2022-10-23T15:56:39.123Z,3.50
2022-10-23T15:59:44.356Z,3.50
2022-10-23T16:02:48.178Z,3.30
2022-10-23T16:05:52.206Z,2.85
2022-10-23T16:08:55.846Z,3.30
2022-10-23T16:11:59.522Z,3.63
2022-10-23T16:15:05.027Z,3.70
2022-10-23T16:18:09.126Z,4.13
2022-10-23T16:21:19.382Z,3.63
2022-10-23T16:24:22.748Z,3.25
2022-10-23T16:27:26.562Z,2.50
2022-10-23T16:30:31.902Z,2.67
2022-10-23T16:33:38.755Z,3.00
2022-10-23T16:36:42.577Z,2.90
2022-10-23T16:39:46.792Z,2.95
2022-10-23T16:43:09.006Z,2.60
2022-10-23T16:46:19.703Z,2.80
2022-10-23T16:49:23.422Z,2.70
2022-10-23T16:52:27.902Z,3.45
2022-10-23T16:55:31.637Z,2.72
2022-10-23T16:58:36.266Z,2.90
2022-10-23T17:01:41.881Z,2.47
2022-10-23T17:04:48.265Z,4.18
2022-10-23T17:07:51.956Z,5.68
2022-10-23T17:11:06.042Z,5.05
2022-10-23T17:14:13.685Z,3.83
2022-10-23T17:17:18.846Z,3.95
2022-10-23T17:20:22.795Z,3.17
2022-10-23T17:23:26.543Z,3.45
2022-10-23T17:26:31.026Z,3.55
2022-10-23T17:29:34.748Z,3.17
2022-10-23T17:32:39.883Z,3.47
2022-10-23T17:35:45.447Z,3.17
2022-10-23T17:38:49.728Z,10.73
2022-10-23T17:41:53.597Z,3.85
2022-10-23T17:44:57.410Z,2.95
2022-10-23T17:48:02.402Z,4.13
2022-10-23T17:51:08.563Z,3.55
2022-10-23T17:54:13.252Z,14.70
2022-10-23T17:57:16.917Z,11.13
2022-10-23T18:00:20.702Z,4.03
2022-10-23T18:03:25.776Z,3.80
2022-10-23T18:06:32.396Z,4.43
2022-10-23T18:09:36.057Z,4.60
2022-10-23T18:12:39.702Z,4.88
2022-10-23T18:15:43.407Z,4.32
2022-10-23T18:18:49.555Z,3.67
2022-10-23T18:21:53.303Z,4.18
2022-10-23T18:24:57.135Z,4.27
2022-10-23T18:28:02.478Z,4.60
2022-10-23T18:31:09.686Z,4.57
2022-10-23T18:34:20.772Z,5.73
2022-10-23T18:37:26.791Z,4.10
2022-10-23T18:40:32.976Z,3.83
2022-10-23T18:43:43.829Z,5.78
2022-10-23T18:46:49.256Z,5.43
2022-10-23T18:49:54.482Z,7.15
2022-10-23T18:52:58.242Z,5.57
2022-10-23T18:56:02.115Z,4.70
2022-10-23T18:59:07.403Z,3.70
2022-10-23T19:02:12.301Z,3.90
2022-10-23T19:05:17.603Z,3.93
2022-10-23T19:08:22.012Z,4.90
2022-10-23T19:11:27.586Z,5.20
2022-10-23T19:14:31.296Z,4.57
2022-10-23T19:17:34.987Z,4.33
2022-10-23T19:20:40.243Z,5.47
2022-10-23T19:23:44.816Z,5.63
2022-10-23T19:26:49.436Z,5.63
2022-10-23T19:29:55.187Z,6.50
2022-10-23T19:32:58.924Z,19.40
2022-10-23T19:36:05.351Z,7.37
2022-10-23T19:39:09.775Z,5.53
2022-10-23T19:42:13.902Z,6.20
2022-10-23T19:45:17.867Z,6.40
2022-10-23T19:48:21.555Z,6.03
2022-10-23T19:51:26.685Z,6.10
2022-10-23T19:54:30.403Z,6.43
2022-10-23T19:57:35.234Z,6.57
2022-10-23T20:00:38.958Z,6.70
2022-10-23T20:03:45.585Z,5.27
2022-10-23T20:06:50.755Z,5.70
2022-10-23T20:09:55.046Z,5.13
2022-10-23T20:13:18.324Z,5.80
2022-10-23T20:16:25.067Z,8.80
2022-10-23T20:19:28.906Z,8.27
2022-10-23T20:22:34.125Z,9.07
2022-10-23T20:25:38.047Z,8.20
2022-10-23T20:28:41.788Z,8.33
2022-10-23T20:31:45.926Z,7.30
2022-10-23T20:34:49.621Z,7.43
2022-10-23T20:37:54.891Z,12.93
2022-10-23T20:41:00.626Z,14.67
2022-10-23T20:44:05.488Z,7.50
2022-10-23T20:47:09.216Z,8.10
2022-10-23T20:50:12.882Z,7.87
2022-10-23T20:53:18.104Z,7.17
2022-10-23T20:56:30.130Z,5.70
2022-10-23T20:59:34.251Z,5.73
2022-10-23T21:02:37.922Z,5.67
2022-10-23T21:05:41.676Z,5.17
2022-10-23T21:08:47.173Z,5.03
2022-10-23T21:11:51.237Z,5.07
2022-10-23T21:14:54.966Z,5.73
2022-10-23T21:18:04.967Z,4.93
2022-10-23T21:21:20.523Z,5.90
2022-10-23T21:24:25.645Z,5.57
2022-10-23T21:27:29.322Z,5.37
2022-10-23T21:30:33.982Z,5.20
2022-10-23T21:33:38.794Z,5.13
2022-10-23T21:37:07.517Z,4.17
2022-10-23T21:40:12.796Z,4.40
2022-10-23T21:43:16.422Z,4.40
2022-10-23T21:46:20.279Z,4.57
2022-10-23T21:49:23.923Z,4.87
2022-10-23T21:52:28.026Z,4.97
2022-10-23T21:55:33.260Z,4.67
2022-10-23T21:58:37.742Z,4.73
2022-10-23T22:01:43.310Z,5.20
2022-10-23T22:04:47.155Z,4.80
2022-10-23T22:07:50.867Z,4.50
2022-10-23T22:10:56.242Z,4.30
2022-10-23T22:14:00.897Z,4.47
2022-10-23T22:17:05.198Z,4.50
2022-10-23T22:20:10.326Z,5.20
2022-10-23T22:23:14.002Z,5.13
2022-10-23T22:26:25.177Z,4.80
2022-10-23T22:29:30.683Z,4.80
2022-10-23T22:32:36.663Z,5.03
2022-10-23T22:35:40.386Z,4.67
2022-10-23T22:38:44.652Z,5.27
2022-10-23T22:41:49.887Z,4.73
2022-10-23T22:44:56.373Z,4.97
2022-10-23T22:47:59.958Z,4.83
2022-10-23T22:51:06.294Z,4.53
2022-10-23T22:54:12.100Z,4.80
2022-10-23T22:57:19.509Z,5.57
2022-10-23T23:00:23.336Z,5.27
2022-10-23T23:03:29.138Z,5.47
2022-10-23T23:06:35.041Z,5.30
2022-10-23T23:09:40.435Z,5.63
2022-10-23T23:12:45.546Z,5.60
2022-10-23T23:15:49.487Z,5.77
2022-10-23T23:18:53.526Z,5.10
2022-10-23T23:21:57.763Z,5.30
2022-10-23T23:25:01.435Z,4.93
2022-10-23T23:28:08.676Z,4.97
2022-10-23T23:31:18.137Z,5.27
2022-10-23T23:34:22.316Z,4.43
2022-10-23T23:37:26.061Z,4.87
2022-10-23T23:40:29.866Z,4.20
2022-10-23T23:43:35.300Z,4.57
2022-10-23T23:46:38.963Z,4.57
2022-10-23T23:49:42.476Z,4.13
2022-10-23T23:52:46.126Z,4.83
2022-10-23T23:55:49.890Z,4.30
2022-10-23T23:58:55.050Z,4.70
